Time;durP1;ratioP1;P1;durP2;ratioP2;P2;SDS_P1;SDS_P2;PMS_P1;PMS_P2;Temp;Humidity;BMP_temperature;BMP_pressure;BME280_temperature;BME280_humidity;BME280_pressure;Samples;Min_cycle;Max_cycle;Signal;HPM_P1;HPM_P2
2021/11/05 00:00:05;;;;;;;10.27;6.77;;;;;;;3.62;100.00;96046.97;5057683;28;20504;-74
2021/11/05 00:02:37;;;;;;;10.57;6.77;;;;;;;3.60;100.00;96046.28;5057823;28;20032;-74
2021/11/05 00:05:04;;;;;;;9.77;7.00;;;;;;;3.59;100.00;96045.47;5034762;28;20033;-74
2021/11/05 00:07:30;;;;;;;9.07;6.57;;;;;;;3.61;100.00;96045.31;5039923;28;20025;-73
2021/11/05 00:09:56;;;;;;;11.37;7.73;;;;;;;3.62;100.00;96049.56;5041290;28;20033;-73
2021/11/05 00:12:21;;;;;;;9.97;7.43;;;;;;;3.57;100.00;96047.34;5060906;28;20020;-73
2021/11/05 00:14:47;;;;;;;13.50;7.83;;;;;;;3.56;100.00;96050.06;5024744;28;20417;-73
2021/11/05 00:17:12;;;;;;;10.90;6.87;;;;;;;3.57;100.00;96056.91;5023104;28;20025;-73
2021/11/05 00:19:38;;;;;;;11.67;7.27;;;;;;;3.61;100.00;96055.72;5062155;28;20588;-73
2021/11/05 00:22:06;;;;;;;11.50;8.57;;;;;;;3.59;100.00;96053.25;5023074;28;20032;-74
2021/11/05 00:24:31;;;;;;;14.20;7.63;;;;;;;3.55;100.00;96059.63;5030944;28;20036;-73
2021/11/05 00:26:57;;;;;;;10.57;7.93;;;;;;;3.51;100.00;96058.22;5051602;28;20539;-73
2021/11/05 00:29:23;;;;;;;10.63;7.80;;;;;;;3.50;100.00;96059.16;5043089;28;20537;-72
2021/11/05 00:31:48;;;;;;;13.27;8.23;;;;;;;3.50;100.00;96062.59;5041382;28;20716;-72
2021/11/05 00:34:17;;;;;;;10.77;7.50;;;;;;;3.51;100.00;96059.03;5052588;28;20025;-73
2021/11/05 00:36:45;;;;;;;11.27;7.33;;;;;;;3.56;100.00;96069.09;5033117;28;20078;-72
2021/11/05 00:39:10;;;;;;;13.53;7.87;;;;;;;3.57;100.00;96064.72;5049598;28;20032;-72
2021/11/05 00:41:36;;;;;;;10.57;7.03;;;;;;;3.57;100.00;96070.75;5024645;28;20020;-72
2021/11/05 00:44:02;;;;;;;9.77;6.73;;;;;;;3.57;100.00;96070.75;5055127;28;20028;-72
2021/11/05 00:46:27;;;;;;;8.33;5.80;;;;;;;3.54;100.00;96066.59;5022258;28;20020;-73
2021/11/05 00:48:53;;;;;;;11.07;6.83;;;;;;;3.51;100.00;96077.25;5036959;28;20028;-74
2021/11/05 00:51:19;;;;;;;12.03;7.30;;;;;;;3.56;100.00;96076.91;5054104;28;20060;-73
2021/11/05 00:53:45;;;;;;;11.87;7.27;;;;;;;3.54;100.00;96083.97;5045406;28;20029;-73
2021/11/05 00:56:10;;;;;;;9.50;6.67;;;;;;;3.56;100.00;96089.06;5038754;28;20021;-73
2021/11/05 00:58:36;;;;;;;9.83;7.13;;;;;;;3.51;100.00;96082.44;5060244;28;20376;-73
2021/11/05 01:01:02;;;;;;;10.13;7.67;;;;;;;3.56;100.00;96086.47;5044087;28;20021;-72
2021/11/05 01:03:28;;;;;;;10.17;6.83;;;;;;;3.50;100.00;96088.59;5059348;28;20493;-74
2021/11/05 01:05:53;;;;;;;9.50;6.77;;;;;;;3.52;100.00;96088.47;5043841;28;20048;-74
2021/11/05 01:08:19;;;;;;;12.40;8.03;;;;;;;3.53;100.00;96087.53;5048470;28;20614;-74
2021/11/05 01:10:45;;;;;;;9.43;6.50;;;;;;;3.53;100.00;96090.94;5040263;28;20029;-74
2021/11/05 01:13:11;;;;;;;10.33;6.83;;;;;;;3.56;100.00;96091.69;5060797;28;20032;-72
2021/11/05 01:15:36;;;;;;;11.53;7.07;;;;;;;3.57;100.00;96088.13;5060927;28;20063;-72
2021/11/05 01:18:02;;;;;;;13.37;7.10;;;;;;;3.56;100.00;96095.09;5046135;28;20033;-74
2021/11/05 01:20:29;;;;;;;10.83;7.27;;;;;;;3.59;100.00;96094.84;5038482;28;20025;-74
2021/11/05 01:22:54;;;;;;;11.17;7.10;;;;;;;3.59;100.00;96099.22;5027728;28;20052;-74
2021/11/05 01:25:20;;;;;;;11.73;8.10;;;;;;;3.58;100.00;96097.56;5048017;28;20078;-74
2021/11/05 01:27:48;;;;;;;11.43;7.27;;;;;;;3.57;100.00;96099.34;5059725;28;20032;-74
2021/11/05 01:30:16;;;;;;;10.43;7.10;;;;;;;3.57;100.00;96104.53;5037751;28;20068;-74
2021/11/05 01:32:43;;;;;;;11.07;8.20;;;;;;;3.60;100.00;96103.47;5056604;28;20057;-74
2021/11/05 01:35:10;;;;;;;11.83;7.23;;;;;;;3.60;100.00;96116.47;5045226;28;20023;-74
2021/11/05 01:37:35;;;;;;;10.50;6.70;;;;;;;3.57;100.00;96114.13;5063557;28;20055;-74
2021/11/05 01:40:02;;;;;;;16.03;7.23;;;;;;;3.65;100.00;96116.94;5039982;28;20100;-74
2021/11/05 01:42:28;;;;;;;8.90;6.17;;;;;;;3.61;100.00;96121.56;5055598;28;20049;-74
2021/11/05 01:44:53;;;;;;;11.20;6.33;;;;;;;3.64;100.00;96123.09;5058871;28;20493;-74
2021/11/05 01:47:19;;;;;;;9.77;6.03;;;;;;;3.65;100.00;96117.75;5036294;28;20033;-73
2021/11/05 01:49:47;;;;;;;7.80;5.40;;;;;;;3.70;100.00;96122.63;5043176;28;20028;-74
2021/11/05 01:52:17;;;;;;;11.50;6.33;;;;;;;3.73;100.00;96120.59;5041114;28;20363;-74
2021/11/05 01:54:43;;;;;;;9.37;6.20;;;;;;;3.65;100.00;96122.13;5030898;28;20383;-74
2021/11/05 01:57:10;;;;;;;9.13;6.23;;;;;;;3.64;100.00;96115.28;5058329;28;20017;-74
2021/11/05 01:59:38;;;;;;;8.50;5.90;;;;;;;3.62;100.00;96115.44;5056696;28;20032;-73
2021/11/05 02:02:08;;;;;;;9.03;5.97;;;;;;;3.63;100.00;96124.88;5022609;28;20059;-74
2021/11/05 02:04:35;;;;;;;8.57;5.83;;;;;;;3.61;100.00;96124.16;5059611;28;20021;-74
2021/11/05 02:07:02;;;;;;;8.47;5.90;;;;;;;3.62;100.00;96128.44;5041936;28;20425;-74
2021/11/05 02:09:29;;;;;;;9.40;5.77;;;;;;;3.61;100.00;96131.13;5059383;28;20028;-74
2021/11/05 02:12:00;;;;;;;9.67;5.87;;;;;;;3.57;100.00;96134.91;5044023;28;20568;-74
2021/11/05 02:14:27;;;;;;;8.27;5.10;;;;;;;3.59;100.00;96133.88;5056144;28;20157;-74
2021/11/05 02:16:56;;;;;;;8.53;5.80;;;;;;;3.56;100.00;96133.28;5041510;28;20025;-74
2021/11/05 02:19:24;;;;;;;9.53;5.73;;;;;;;3.56;100.00;96134.09;5051803;28;20474;-74
2021/11/05 02:21:53;;;;;;;10.90;6.43;;;;;;;3.49;100.00;96138.13;5041268;28;20489;-74
2021/11/05 02:24:20;;;;;;;8.97;5.73;;;;;;;3.53;100.00;96132.56;5033123;28;20039;-74
2021/11/05 02:26:46;;;;;;;10.77;5.57;;;;;;;3.53;100.00;96140.34;5059311;28;20032;-74
2021/11/05 02:29:13;;;;;;;11.03;6.37;;;;;;;3.59;100.00;96139.06;5037257;28;20123;-74
2021/11/05 02:31:40;;;;;;;10.37;5.90;;;;;;;3.58;100.00;96147.78;5062845;28;20024;-74
2021/11/05 02:34:06;;;;;;;9.70;6.30;;;;;;;3.54;100.00;96146.38;5054419;28;20116;-74
2021/11/05 02:36:31;;;;;;;8.27;5.70;;;;;;;3.49;100.00;96148.53;5049518;28;20101;-74
2021/11/05 02:38:58;;;;;;;8.33;5.73;;;;;;;3.50;100.00;96155.38;5061059;28;20036;-74
2021/11/05 02:41:24;;;;;;;9.10;5.73;;;;;;;3.53;100.00;96155.13;5045019;28;20063;-74
2021/11/05 02:43:51;;;;;;;7.83;5.80;;;;;;;3.48;100.00;96152.88;5054519;28;20040;-74
2021/11/05 02:46:17;;;;;;;13.23;6.77;;;;;;;3.55;100.00;96153.22;5043726;28;20054;-74
2021/11/05 02:48:43;;;;;;;9.33;6.10;;;;;;;3.48;100.00;96155.47;5061936;28;20750;-74
2021/11/05 02:51:10;;;;;;;8.50;5.90;;;;;;;3.47;100.00;96159.03;5041181;28;20028;-74
2021/11/05 02:53:38;;;;;;;9.80;6.77;;;;;;;3.44;100.00;96161.03;5034859;28;20067;-74
2021/11/05 02:56:05;;;;;;;9.23;5.93;;;;;;;3.49;100.00;96167.53;5035120;28;20029;-74
2021/11/05 02:58:30;;;;;;;9.50;6.20;;;;;;;3.47;100.00;96171.19;5015660;28;20075;-74
2021/11/05 03:00:58;;;;;;;10.10;6.17;;;;;;;3.48;100.00;96165.03;5043652;28;20056;-74
2021/11/05 03:03:26;;;;;;;8.80;6.17;;;;;;;3.50;100.00;96170.97;5062315;28;20036;-74
2021/11/05 03:05:52;;;;;;;9.17;6.63;;;;;;;3.50;100.00;96186.56;5043395;28;20040;-74
2021/11/05 03:08:18;;;;;;;9.97;6.93;;;;;;;3.48;100.00;96180.63;5044308;28;20031;-72
2021/11/05 03:10:44;;;;;;;9.03;6.40;;;;;;;3.45;100.00;96181.69;5026470;28;20540;-72
2021/11/05 03:13:10;;;;;;;10.63;6.43;;;;;;;3.44;100.00;96187.03;5040579;28;20032;-72
2021/11/05 03:15:36;;;;;;;10.57;6.80;;;;;;;3.39;100.00;96189.97;5039867;28;20080;-73
2021/11/05 03:18:02;;;;;;;8.40;5.90;;;;;;;3.46;100.00;96191.16;5050438;28;20036;-72
2021/11/05 03:20:28;;;;;;;10.87;6.37;;;;;;;3.45;100.00;96192.09;5040089;28;20018;-71
2021/11/05 03:22:53;;;;;;;8.87;5.87;;;;;;;3.44;100.00;96195.66;5040518;28;20029;-71
2021/11/05 03:25:19;;;;;;;11.70;6.77;;;;;;;3.40;100.00;96202.03;5048184;28;20063;-71
2021/11/05 03:27:46;;;;;;;8.77;5.93;;;;;;;3.41;100.00;96193.28;5047381;28;20029;-71
2021/11/05 03:30:14;;;;;;;12.03;6.30;;;;;;;3.45;100.00;96199.06;5054429;28;20032;-70
2021/11/05 03:32:40;;;;;;;9.70;7.07;;;;;;;3.43;100.00;96201.81;5061592;28;20465;-71
2021/11/05 03:35:07;;;;;;;9.40;6.57;;;;;;;3.39;100.00;96209.97;5035399;28;20113;-71
2021/11/05 03:37:33;;;;;;;10.63;6.67;;;;;;;3.42;100.00;96218.34;5069905;28;20043;-71
2021/11/05 03:40:05;;;;;;;10.37;6.23;;;;;;;3.35;100.00;96219.72;5040367;28;20032;-71
2021/11/05 03:42:32;;;;;;;11.80;6.40;;;;;;;3.35;100.00;96217.13;5058192;28;20082;-71
2021/11/05 03:44:57;;;;;;;9.87;6.63;;;;;;;3.42;100.00;96223.56;5066675;28;20052;-71
2021/11/05 03:47:23;;;;;;;9.17;6.80;;;;;;;3.40;100.00;96222.00;5023374;28;20117;-71
2021/11/05 03:49:49;;;;;;;9.87;7.03;;;;;;;3.45;100.00;96230.25;5045452;28;20063;-71
2021/11/05 03:52:15;;;;;;;10.73;7.67;;;;;;;3.43;100.00;96227.78;5040504;28;20098;-71
2021/11/05 03:54:40;;;;;;;12.50;7.97;;;;;;;3.45;100.00;96228.50;5066390;28;20611;-71
2021/11/05 03:57:07;;;;;;;10.57;7.57;;;;;;;3.44;100.00;96236.41;5044052;28;20029;-71
2021/11/05 03:59:32;;;;;;;10.97;7.80;;;;;;;3.46;100.00;96230.16;5049085;28;20107;-71
2021/11/05 04:01:58;;;;;;;10.23;7.60;;;;;;;3.45;100.00;96236.28;5060450;28;20154;-71
2021/11/05 04:04:24;;;;;;;9.53;6.90;;;;;;;3.42;100.00;96241.75;5054965;28;20047;-71
2021/11/05 04:06:50;;;;;;;10.93;7.73;;;;;;;3.43;100.00;96235.59;5057512;28;20033;-71
2021/11/05 04:09:16;;;;;;;11.83;7.93;;;;;;;3.48;100.00;96245.63;5049524;28;20108;-71
2021/11/05 04:11:42;;;;;;;11.33;8.20;;;;;;;3.42;100.00;96246.94;5017915;28;20566;-71
2021/11/05 04:14:08;;;;;;;12.97;8.37;;;;;;;3.47;100.00;96250.00;5061270;28;20131;-71
2021/11/05 04:16:34;;;;;;;11.87;8.27;;;;;;;3.47;100.00;96250.00;5060775;28;20029;-71
2021/11/05 04:19:00;;;;;;;12.37;7.73;;;;;;;3.40;100.00;96245.41;5052882;28;20027;-71
2021/11/05 04:21:25;;;;;;;10.03;7.03;;;;;;;3.43;100.00;96256.41;5060769;28;20381;-71
2021/11/05 04:23:51;;;;;;;12.50;8.80;;;;;;;3.42;100.00;96261.69;5042807;28;20044;-71
2021/11/05 04:26:17;;;;;;;14.90;8.60;;;;;;;3.36;100.00;96257.78;5042862;28;20394;-71
2021/11/05 04:28:43;;;;;;;11.93;8.40;;;;;;;3.36;100.00;96263.00;5069018;28;20408;-71
2021/11/05 04:31:09;;;;;;;11.50;8.10;;;;;;;3.39;100.00;96267.97;5038475;28;20529;-71
2021/11/05 04:33:36;;;;;;;12.20;8.20;;;;;;;3.35;100.00;96263.09;5057687;28;20032;-71
2021/11/05 04:36:03;;;;;;;13.67;7.83;;;;;;;3.40;100.00;96264.41;5052289;28;20040;-71
2021/11/05 04:38:29;;;;;;;11.23;7.87;;;;;;;3.43;100.00;96264.19;5061070;28;20017;-71
2021/11/05 04:40:56;;;;;;;10.57;7.97;;;;;;;3.40;100.00;96259.22;5055455;28;20033;-71
2021/11/05 04:43:23;;;;;;;10.63;8.03;;;;;;;3.38;100.00;96258.50;5061197;28;20020;-71
2021/11/05 04:45:49;;;;;;;10.40;7.83;;;;;;;3.36;100.00;96265.59;5059066;28;20450;-71
2021/11/05 04:48:15;;;;;;;10.90;8.13;;;;;;;3.37;100.00;96274.22;5057415;28;20048;-71
2021/11/05 04:50:42;;;;;;;10.10;7.47;;;;;;;3.35;100.00;96268.28;5040279;28;20033;-71
2021/11/05 04:53:07;;;;;;;14.00;8.63;;;;;;;3.39;100.00;96278.38;5069253;28;20024;-71
2021/11/05 04:55:33;;;;;;;10.90;7.87;;;;;;;3.41;100.00;96271.25;5061623;28;20051;-71
2021/11/05 04:57:59;;;;;;;11.77;7.87;;;;;;;3.42;100.00;96283.34;5065760;28;20064;-71
2021/11/05 05:00:26;;;;;;;14.00;8.87;;;;;;;3.44;100.00;96284.03;5031305;28;20666;-71
2021/11/05 05:02:55;;;;;;;10.80;7.07;;;;;;;3.40;100.00;96285.22;5033106;28;20044;-71
2021/11/05 05:05:22;;;;;;;10.03;7.40;;;;;;;3.39;100.00;96286.16;5045020;28;20067;-71
2021/11/05 05:07:48;;;;;;;11.27;8.10;;;;;;;3.44;100.00;96281.44;5057483;28;20436;-71
2021/11/05 05:10:16;;;;;;;10.53;7.07;;;;;;;3.45;100.00;96288.28;5039195;28;20044;-71
2021/11/05 05:12:42;;;;;;;10.57;7.53;;;;;;;3.44;100.00;96280.59;5025832;28;20033;-71
2021/11/05 05:15:11;;;;;;;9.10;6.77;;;;;;;3.39;100.00;96283.56;5057852;28;20075;-71
2021/11/05 05:17:38;;;;;;;11.47;7.20;;;;;;;3.42;100.00;96285.94;5057220;28;20031;-71
2021/11/05 05:20:07;;;;;;;10.27;7.10;;;;;;;3.41;100.00;96289.47;5040014;28;20047;-71
2021/11/05 05:22:33;;;;;;;10.13;7.30;;;;;;;3.38;100.00;96294.88;5030856;28;20013;-71
2021/11/05 05:24:58;;;;;;;10.10;6.87;;;;;;;3.44;100.00;96299.63;5066560;28;20041;-72
2021/11/05 05:27:24;;;;;;;9.70;6.30;;;;;;;3.47;100.00;96306.38;5034162;28;20017;-72
2021/11/05 05:29:50;;;;;;;12.17;6.80;;;;;;;3.46;100.00;96300.38;5060158;28;20103;-72
2021/11/05 05:32:16;;;;;;;11.63;7.13;;;;;;;3.43;100.00;96312.75;5060415;28;20482;-72
2021/11/05 05:34:42;;;;;;;9.30;6.70;;;;;;;3.48;100.00;96308.03;5041221;28;20109;-73
2021/11/05 05:37:07;;;;;;;9.30;6.57;;;;;;;3.45;100.00;96316.88;5039002;28;20486;-72
2021/11/05 05:39:33;;;;;;;10.97;7.07;;;;;;;3.43;100.00;96316.19;5039140;28;20139;-72
2021/11/05 05:41:59;;;;;;;13.17;7.67;;;;;;;3.49;100.00;96326.13;5041905;28;20106;-72
2021/11/05 05:44:25;;;;;;;10.73;7.80;;;;;;;3.45;100.00;96322.09;5063351;28;20086;-72
2021/11/05 05:46:51;;;;;;;10.57;6.40;;;;;;;3.48;100.00;96324.47;5043925;28;20469;-72
2021/11/05 05:49:17;;;;;;;13.33;7.93;;;;;;;3.43;100.00;96331.78;5044504;28;20033;-72
2021/11/05 05:51:43;;;;;;;9.73;6.73;;;;;;;3.48;100.00;96332.25;5055288;28;20444;-72
2021/11/05 05:54:09;;;;;;;10.63;6.90;;;;;;;3.45;100.00;96337.69;5052360;28;20041;-72
2021/11/05 05:56:35;;;;;;;10.37;6.80;;;;;;;3.45;100.00;96342.06;5029179;28;20090;-72
2021/11/05 05:59:01;;;;;;;10.27;6.93;;;;;;;3.44;100.00;96348.22;5058991;28;20037;-72
2021/11/05 06:01:27;;;;;;;9.80;7.00;;;;;;;3.46;100.00;96341.97;5052838;28;20020;-72
2021/11/05 06:03:52;;;;;;;8.60;6.57;;;;;;;3.48;100.00;96354.84;5043142;28;20038;-73
2021/11/05 06:06:18;;;;;;;10.87;6.90;;;;;;;3.50;100.00;96355.56;5041800;28;20013;-72
2021/11/05 06:08:44;;;;;;;11.00;6.83;;;;;;;3.49;100.00;96359.94;5042930;28;20025;-72
2021/11/05 06:11:10;;;;;;;10.87;7.40;;;;;;;3.56;100.00;96369.91;5045235;28;20024;-72
2021/11/05 06:13:36;;;;;;;8.90;6.50;;;;;;;3.57;100.00;96364.56;5060892;28;20417;-72
2021/11/05 06:16:02;;;;;;;10.37;6.97;;;;;;;3.52;100.00;96372.72;5035534;28;20474;-73
2021/11/05 06:18:29;;;;;;;9.80;6.70;;;;;;;3.54;100.00;96375.19;5059523;28;20036;-73
2021/11/05 06:20:55;;;;;;;9.90;6.73;;;;;;;3.57;100.00;96385.38;5044889;28;20056;-72
2021/11/05 06:23:20;;;;;;;12.87;7.00;;;;;;;3.60;100.00;96382.53;5022317;28;20525;-72
2021/11/05 06:25:46;;;;;;;10.63;7.10;;;;;;;3.64;100.00;96383.16;5044549;28;20029;-72
2021/11/05 06:28:12;;;;;;;10.77;7.40;;;;;;;3.63;100.00;96395.31;5062555;28;20056;-71
2021/11/05 06:30:38;;;;;;;10.87;7.43;;;;;;;3.62;100.00;96401.47;5054909;28;20047;-72
2021/11/05 06:33:04;;;;;;;11.70;7.73;;;;;;;3.62;100.00;96396.28;5054931;28;20025;-73
2021/11/05 06:35:30;;;;;;;13.07;7.67;;;;;;;3.63;100.00;96403.13;5044963;28;20711;-72
2021/11/05 06:37:56;;;;;;;10.47;7.83;;;;;;;3.67;100.00;96407.16;5034246;28;20682;-73
2021/11/05 06:40:22;;;;;;;11.53;7.90;;;;;;;3.64;100.00;96411.75;5045299;28;20020;-73
2021/11/05 06:42:48;;;;;;;11.93;8.07;;;;;;;3.63;100.00;96415.31;5044546;28;20039;-71
2021/11/05 06:45:14;;;;;;;15.27;9.13;;;;;;;3.64;100.00;96419.56;5044479;28;20028;-71
2021/11/05 06:47:40;;;;;;;12.37;8.50;;;;;;;3.67;100.00;96427.13;5051967;28;20037;-72
2021/11/05 06:50:08;;;;;;;16.17;9.20;;;;;;;3.68;100.00;96426.19;5061664;28;20038;-71
2021/11/05 06:52:34;;;;;;;11.70;7.53;;;;;;;3.64;100.00;96437.75;5041401;28;20037;-72
2021/11/05 06:55:01;;;;;;;13.13;7.60;;;;;;;3.68;100.00;96444.38;5054619;28;20103;-71
2021/11/05 06:57:27;;;;;;;11.67;8.10;;;;;;;3.70;100.00;96455.53;5049061;28;20434;-72
2021/11/05 06:59:56;;;;;;;15.93;8.50;;;;;;;3.75;100.00;96466.41;5040721;28;20025;-72
2021/11/05 07:02:22;;;;;;;10.90;6.87;;;;;;;3.71;100.00;96464.97;5044734;28;20028;-72
2021/11/05 07:04:48;;;;;;;14.57;8.77;;;;;;;3.65;100.00;96468.84;5062124;28;20081;-72
2021/11/05 07:07:14;;;;;;;10.57;7.83;;;;;;;3.68;100.00;96473.81;5041739;28;20021;-72
2021/11/05 07:09:40;;;;;;;12.30;7.40;;;;;;;3.69;100.00;96483.31;5035056;28;20448;-72
2021/11/05 07:12:07;;;;;;;11.73;7.60;;;;;;;3.72;100.00;96483.09;5059145;28;20029;-72
2021/11/05 07:14:33;;;;;;;11.30;6.70;;;;;;;3.69;100.00;96491.09;5058774;28;20017;-72
2021/11/05 07:16:59;;;;;;;10.00;7.43;;;;;;;3.74;100.00;96496.78;5043866;28;20044;-72
2021/11/05 07:19:25;;;;;;;10.67;7.57;;;;;;;3.79;100.00;96506.88;5044998;28;20059;-72
2021/11/05 07:21:59;;;;;;;11.63;7.50;;;;;;;3.77;100.00;96511.34;5032781;28;20043;-72
2021/11/05 07:24:32;;;;;;;10.67;7.20;;;;;;;3.77;100.00;96511.34;5027106;28;20090;-71
2021/11/05 07:26:58;;;;;;;11.60;7.60;;;;;;;3.79;100.00;96514.69;5053350;28;20087;-72
2021/11/05 07:29:28;;;;;;;9.53;6.67;;;;;;;3.85;100.00;96524.63;5053403;28;20056;-72
2021/11/05 07:31:56;;;;;;;11.77;7.60;;;;;;;3.82;100.00;96531.81;5037951;28;20028;-73
2021/11/05 07:34:22;;;;;;;10.20;7.23;;;;;;;3.82;100.00;96532.66;5029015;28;20021;-71
2021/11/05 07:36:48;;;;;;;9.73;6.53;;;;;;;3.82;100.00;96535.25;5023516;28;20242;-72
2021/11/05 07:39:14;;;;;;;12.73;8.63;;;;;;;3.95;100.00;96533.44;5040899;28;20544;-71
2021/11/05 07:41:40;;;;;;;12.13;8.63;;;;;;;3.96;100.00;96544.69;5017575;28;20041;-72
2021/11/05 07:44:05;;;;;;;13.00;8.73;;;;;;;4.00;100.00;96552.16;5058131;28;20116;-71
2021/11/05 07:46:32;;;;;;;10.50;7.40;;;;;;;4.01;100.00;96556.41;5056742;28;20492;-72
2021/11/05 07:48:58;;;;;;;9.60;6.93;;;;;;;3.97;100.00;96557.56;5041312;28;20107;-71
2021/11/05 07:51:23;;;;;;;9.97;7.07;;;;;;;4.06;100.00;96566.50;5063242;28;20122;-72
2021/11/05 07:53:50;;;;;;;9.93;6.43;;;;;;;4.08;100.00;96566.38;5049853;28;20040;-73
2021/11/05 07:56:16;;;;;;;9.07;6.63;;;;;;;4.14;100.00;96564.16;5039654;28;20115;-72
2021/11/05 07:58:42;;;;;;;10.00;7.27;;;;;;;4.22;100.00;96566.19;5023493;28;20040;-72
2021/11/05 08:01:07;;;;;;;10.20;7.30;;;;;;;4.15;100.00;96565.81;5044446;28;20039;-73
2021/11/05 08:03:33;;;;;;;8.00;5.90;;;;;;;4.22;100.00;96576.63;5043691;28;20036;-72
2021/11/05 08:05:59;;;;;;;10.57;6.57;;;;;;;4.31;100.00;96577.72;5046889;28;21252;-72
2021/11/05 08:08:26;;;;;;;8.80;6.40;;;;;;;4.40;100.00;96577.06;5000233;28;20033;-72
2021/11/05 08:10:53;;;;;;;10.73;7.50;;;;;;;4.43;100.00;96588.09;5042118;28;20032;-73
2021/11/05 08:13:20;;;;;;;9.47;6.77;;;;;;;4.42;100.00;96586.41;5045776;28;20503;-72
2021/11/05 08:15:45;;;;;;;10.37;7.43;;;;;;;4.46;100.00;96587.84;5051379;28;20037;-72
2021/11/05 08:18:11;;;;;;;8.27;5.97;;;;;;;4.58;100.00;96595.69;5056728;28;20501;-72
2021/11/05 08:20:37;;;;;;;8.73;6.23;;;;;;;4.52;100.00;96599.59;5039952;28;20698;-72
2021/11/05 08:23:03;;;;;;;10.07;6.37;;;;;;;4.44;100.00;96609.75;5033265;28;20758;-73
2021/11/05 08:25:30;;;;;;;10.63;6.73;;;;;;;4.46;100.00;96608.69;5022934;28;20738;-72
2021/11/05 08:27:57;;;;;;;10.00;7.17;;;;;;;4.45;100.00;96617.44;5028544;28;20589;-72
2021/11/05 08:30:24;;;;;;;14.03;8.97;;;;;;;4.56;100.00;96621.03;5056983;28;20029;-74
2021/11/05 08:32:59;;;;;;;10.27;7.33;;;;;;;4.58;100.00;96629.56;5021687;28;20040;-72
2021/11/05 08:35:27;;;;;;;9.13;5.97;;;;;;;4.59;100.00;96628.63;5030890;28;20830;-74
2021/11/05 08:37:53;;;;;;;11.23;6.83;;;;;;;4.53;100.00;96631.66;5033961;28;20017;-73
2021/11/05 08:40:19;;;;;;;8.60;5.67;;;;;;;4.59;100.00;96632.03;5038991;28;20393;-73
2021/11/05 08:42:46;;;;;;;10.53;6.83;;;;;;;4.65;100.00;96641.19;5034672;28;20053;-73
2021/11/05 08:45:12;;;;;;;7.93;5.83;;;;;;;4.68;100.00;96639.19;5029788;28;20397;-73
2021/11/05 08:47:40;;;;;;;8.37;5.53;;;;;;;4.63;100.00;96635.28;5032431;28;20012;-73
2021/11/05 08:50:11;;;;;;;8.20;5.70;;;;;;;4.80;100.00;96645.28;5048708;28;20057;-73
2021/11/05 08:52:38;;;;;;;10.37;6.10;;;;;;;4.74;100.00;96648.34;5032733;28;20036;-73
2021/11/05 08:55:06;;;;;;;9.07;5.40;;;;;;;4.74;100.00;96650.94;5039228;28;20601;-72
2021/11/05 08:57:33;;;;;;;9.27;5.43;;;;;;;4.80;100.00;96652.28;5040095;28;20444;-74
2021/11/05 09:00:01;;;;;;;8.23;5.23;;;;;;;4.78;100.00;96660.19;5039131;28;20453;-73
2021/11/05 09:02:28;;;;;;;10.37;6.47;;;;;;;4.94;100.00;96665.94;5040418;28;20033;-74
2021/11/05 09:04:54;;;;;;;7.07;4.70;;;;;;;4.96;100.00;96666.66;5029960;28;20089;-73
2021/11/05 09:07:20;;;;;;;7.77;5.10;;;;;;;5.15;100.00;96665.28;5033676;28;20044;-74
2021/11/05 09:09:46;;;;;;;7.00;4.90;;;;;;;5.28;100.00;96668.63;5028854;28;20033;-73
2021/11/05 09:12:12;;;;;;;7.00;4.77;;;;;;;5.52;100.00;96659.88;5038213;28;20029;-73
2021/11/05 09:14:38;;;;;;;7.43;5.23;;;;;;;5.66;100.00;96662.25;5034785;28;20060;-75
2021/11/05 09:17:07;;;;;;;6.73;4.50;;;;;;;5.75;100.00;96664.16;5026217;28;20025;-75
2021/11/05 09:19:32;;;;;;;6.40;4.13;;;;;;;5.85;100.00;96666.88;5039755;28;20087;-74
2021/11/05 09:21:58;;;;;;;6.97;4.40;;;;;;;6.18;100.00;96660.84;5047726;28;20041;-74
2021/11/05 09:24:24;;;;;;;5.63;3.67;;;;;;;6.01;100.00;96671.78;5016389;28;20087;-73
2021/11/05 09:26:50;;;;;;;6.67;4.60;;;;;;;5.88;100.00;96666.66;5039718;28;20127;-75
2021/11/05 09:29:18;;;;;;;6.77;4.20;;;;;;;5.93;100.00;96674.97;5011242;28;20029;-76
2021/11/05 09:31:43;;;;;;;6.33;4.20;;;;;;;5.70;100.00;96679.34;5049081;28;20077;-75
2021/11/05 09:34:09;;;;;;;6.50;3.83;;;;;;;5.74;100.00;96695.59;5041756;28;20028;-75
2021/11/05 09:36:35;;;;;;;5.20;3.20;;;;;;;6.02;100.00;96684.69;5037037;28;20757;-74
2021/11/05 09:39:02;;;;;;;7.30;4.23;;;;;;;6.22;100.00;96690.97;5063564;28;20558;-75
2021/11/05 09:41:28;;;;;;;4.80;3.07;;;;;;;6.36;100.00;96698.53;5027015;28;20025;-75
2021/11/05 09:43:55;;;;;;;6.10;3.80;;;;;;;6.82;100.00;96700.09;5063272;28;20029;-75
2021/11/05 09:46:21;;;;;;;6.77;4.23;;;;;;;7.07;100.00;96696.28;5022279;28;20021;-75
2021/11/05 09:48:48;;;;;;;4.93;3.30;;;;;;;7.04;100.00;96703.56;5029055;28;20092;-77
2021/11/05 09:51:14;;;;;;;6.43;3.30;;;;;;;6.79;100.00;96710.78;5045560;28;20040;-76
2021/11/05 09:53:41;;;;;;;4.20;2.73;;;;;;;6.60;100.00;96710.59;5048059;28;20054;-75
2021/11/05 09:56:10;;;;;;;5.10;3.23;;;;;;;6.17;100.00;96721.00;5038837;28;20040;-76
2021/11/05 09:58:38;;;;;;;4.43;2.63;;;;;;;6.25;100.00;96721.25;5041155;28;20029;-76
2021/11/05 10:01:05;;;;;;;5.13;2.93;;;;;;;6.29;100.00;96726.09;5050726;28;20037;-76
2021/11/05 10:03:31;;;;;;;8.67;4.83;;;;;;;6.22;100.00;96732.75;5031182;28;20037;-76
2021/11/05 10:05:58;;;;;;;6.80;4.60;;;;;;;6.05;100.00;96733.25;5034723;28;20039;-76
2021/11/05 10:08:32;;;;;;;5.83;3.97;;;;;;;6.03;100.00;96737.75;5051645;28;20469;-75
2021/11/05 10:11:21;;;;;;;6.00;3.50;;;;;;;5.89;100.00;96731.78;5038777;28;20186;-75
2021/11/05 10:13:48;;;;;;;5.47;3.40;;;;;;;5.90;100.00;96730.84;5028270;28;20041;-74
2021/11/05 10:16:16;;;;;;;6.07;3.40;;;;;;;6.04;100.00;96734.19;5055543;28;20030;-74
2021/11/05 10:19:07;;;;;;;5.73;3.13;;;;;;;6.07;100.00;96733.94;5026672;28;20033;-76
2021/11/05 10:21:42;;;;;;;6.83;3.50;;;;;;;5.97;100.00;96733.84;5046006;28;20489;-76
2021/11/05 10:24:13;;;;;;;4.87;3.27;;;;;;;5.97;100.00;96739.06;5041826;28;20490;-75
2021/11/05 10:26:40;;;;;;;6.17;4.00;;;;;;;6.06;100.00;96737.50;5039602;28;20400;-75
2021/11/05 10:29:08;;;;;;;6.47;4.20;;;;;;;6.07;100.00;96737.41;5059592;28;20017;-75
2021/11/05 10:31:36;;;;;;;4.63;3.23;;;;;;;5.93;100.00;96742.84;5056750;28;20037;-75
2021/11/05 10:34:03;;;;;;;5.23;3.27;;;;;;;5.99;100.00;96736.31;5029740;28;20398;-75
2021/11/05 10:36:30;;;;;;;6.17;3.73;;;;;;;6.04;100.00;96749.88;5036315;28;20068;-75
2021/11/05 10:39:00;;;;;;;5.90;3.47;;;;;;;5.98;100.00;96745.94;5069455;28;20622;-76
2021/11/05 10:41:29;;;;;;;6.80;4.10;;;;;;;5.99;100.00;96747.59;5026043;28;20033;-76
2021/11/05 10:43:57;;;;;;;6.23;3.53;;;;;;;6.08;100.00;96752.13;5043253;28;20017;-75
2021/11/05 10:46:33;;;;;;;9.07;5.30;;;;;;;6.19;100.00;96748.66;5024837;28;20025;-75
2021/11/05 10:49:30;;;;;;;5.70;3.90;;;;;;;6.21;100.00;96752.00;5065494;28;20484;-77
2021/11/05 10:52:28;;;;;;;6.53;3.80;;;;;;;6.44;100.00;96751.97;5064413;28;20038;-76
2021/11/05 10:54:59;;;;;;;5.93;3.53;;;;;;;6.52;100.00;96760.03;5010184;28;20170;-76
2021/11/05 10:57:38;;;;;;;6.73;3.53;;;;;;;6.49;100.00;96760.28;5064218;28;20028;-75
2021/11/05 11:00:30;;;;;;;5.70;3.43;;;;;;;6.49;100.00;96768.13;5063404;28;20029;-75
2021/11/05 11:03:07;;;;;;;8.00;3.97;;;;;;;6.74;100.00;96759.16;5033715;28;20032;-74
2021/11/05 11:05:35;;;;;;;5.50;3.50;;;;;;;6.68;100.00;96770.94;5017530;28;20029;-75
2021/11/05 11:08:02;;;;;;;9.47;5.27;;;;;;;6.75;100.00;96763.44;5033108;28;20029;-75
2021/11/05 11:10:36;;;;;;;7.37;4.57;;;;;;;6.80;100.00;96774.34;5059049;28;20082;-75
2021/11/05 11:13:02;;;;;;;6.20;3.83;;;;;;;6.79;100.00;96767.47;5060951;28;20094;-75
2021/11/05 11:15:37;;;;;;;9.13;5.03;;;;;;;6.68;100.00;96770.94;5031621;28;20047;-77
2021/11/05 11:18:04;;;;;;;7.40;4.47;;;;;;;6.70;100.00;96769.03;5036399;28;20620;-75
2021/11/05 11:20:30;;;;;;;6.27;4.20;;;;;;;6.58;100.00;96775.25;5029779;28;20025;-76
2021/11/05 11:22:56;;;;;;;6.77;4.07;;;;;;;6.47;100.00;96777.84;5049271;28;20123;-76
2021/11/05 11:25:22;;;;;;;7.03;4.13;;;;;;;6.52;100.00;96778.31;5038816;28;20024;-77
2021/11/05 11:27:48;;;;;;;6.67;4.00;;;;;;;6.41;100.00;96778.34;5060638;28;20035;-75